sensor_id;sensor_type;location;lat;lon;timestamp;P1;durP1;ratioP1;P2;durP2;ratioP2
77226;SDS011;66234;47.642;19.144;2023-03-23T00:00:22;39.50;;;19.95;;
77226;SDS011;66234;47.642;19.144;2023-03-23T00:03:24;43.45;;;18.75;;
77226;SDS011;66234;47.642;19.144;2023-03-23T00:06:27;36.03;;;18.73;;
77226;SDS011;66234;47.642;19.144;2023-03-23T00:09:34;37.27;;;19.67;;
77226;SDS011;66234;47.642;19.144;2023-03-23T00:12:35;41.90;;;21.05;;
77226;SDS011;66234;47.642;19.144;2023-03-23T00:15:37;40.45;;;18.45;;
77226;SDS011;66234;47.642;19.144;2023-03-23T00:18:51;36.75;;;18.70;;
77226;SDS011;66234;47.642;19.144;2023-03-23T00:21:53;37.67;;;18.70;;
77226;SDS011;66234;47.642;19.144;2023-03-23T00:24:55;35.90;;;18.50;;
77226;SDS011;66234;47.642;19.144;2023-03-23T00:27:56;36.58;;;19.83;;
77226;SDS011;66234;47.642;19.144;2023-03-23T00:30:59;39.05;;;19.40;;
77226;SDS011;66234;47.642;19.144;2023-03-23T00:34:03;35.85;;;17.55;;
77226;SDS011;66234;47.642;19.144;2023-03-23T00:37:06;36.43;;;18.43;;
77226;SDS011;66234;47.642;19.144;2023-03-23T00:40:10;34.53;;;17.93;;
77226;SDS011;66234;47.642;19.144;2023-03-23T00:43:13;30.92;;;18.40;;
77226;SDS011;66234;47.642;19.144;2023-03-23T00:46:16;39.47;;;18.70;;
77226;SDS011;66234;47.642;19.144;2023-03-23T00:49:19;31.08;;;17.98;;
77226;SDS011;66234;47.642;19.144;2023-03-23T00:52:26;31.37;;;17.73;;
77226;SDS011;66234;47.642;19.144;2023-03-23T00:55:27;33.63;;;18.00;;
77226;SDS011;66234;47.642;19.144;2023-03-23T00:58:29;37.97;;;18.25;;
77226;SDS011;66234;47.642;19.144;2023-03-23T01:01:30;35.50;;;18.67;;
77226;SDS011;66234;47.642;19.144;2023-03-23T01:04:32;36.80;;;17.00;;
77226;SDS011;66234;47.642;19.144;2023-03-23T01:07:40;37.63;;;17.17;;
77226;SDS011;66234;47.642;19.144;2023-03-23T01:10:43;32.17;;;16.57;;
77226;SDS011;66234;47.642;19.144;2023-03-23T01:13:46;34.15;;;16.55;;
77226;SDS011;66234;47.642;19.144;2023-03-23T01:16:47;33.28;;;17.35;;
77226;SDS011;66234;47.642;19.144;2023-03-23T01:19:49;30.45;;;17.33;;
77226;SDS011;66234;47.642;19.144;2023-03-23T01:22:50;33.00;;;17.17;;
77226;SDS011;66234;47.642;19.144;2023-03-23T01:25:51;27.60;;;16.43;;
77226;SDS011;66234;47.642;19.144;2023-03-23T01:28:55;37.25;;;16.25;;
77226;SDS011;66234;47.642;19.144;2023-03-23T01:31:57;32.55;;;15.57;;
77226;SDS011;66234;47.642;19.144;2023-03-23T01:34:59;30.73;;;15.80;;
77226;SDS011;66234;47.642;19.144;2023-03-23T01:38:01;32.87;;;15.73;;
77226;SDS011;66234;47.642;19.144;2023-03-23T01:41:03;29.07;;;15.33;;
77226;SDS011;66234;47.642;19.144;2023-03-23T01:44:06;32.97;;;16.35;;
77226;SDS011;66234;47.642;19.144;2023-03-23T01:47:40;30.17;;;15.50;;
77226;SDS011;66234;47.642;19.144;2023-03-23T01:50:43;28.10;;;14.82;;
77226;SDS011;66234;47.642;19.144;2023-03-23T01:54:06;29.23;;;15.17;;
77226;SDS011;66234;47.642;19.144;2023-03-23T01:57:10;31.20;;;15.03;;
77226;SDS011;66234;47.642;19.144;2023-03-23T02:00:16;29.23;;;16.02;;
77226;SDS011;66234;47.642;19.144;2023-03-23T02:03:27;27.05;;;14.60;;
77226;SDS011;66234;47.642;19.144;2023-03-23T02:06:30;29.65;;;14.82;;
77226;SDS011;66234;47.642;19.144;2023-03-23T02:09:44;31.03;;;13.40;;
77226;SDS011;66234;47.642;19.144;2023-03-23T02:12:46;25.27;;;12.60;;
77226;SDS011;66234;47.642;19.144;2023-03-23T02:15:51;25.55;;;12.18;;
77226;SDS011;66234;47.642;19.144;2023-03-23T02:19:01;26.98;;;13.45;;
77226;SDS011;66234;47.642;19.144;2023-03-23T02:36:00;21.02;;;11.18;;
77226;SDS011;66234;47.642;19.144;2023-03-23T02:39:14;23.45;;;11.57;;
77226;SDS011;66234;47.642;19.144;2023-03-23T02:42:39;22.03;;;10.67;;
77226;SDS011;66234;47.642;19.144;2023-03-23T02:45:44;24.67;;;11.90;;
77226;SDS011;66234;47.642;19.144;2023-03-23T02:48:47;23.48;;;11.60;;
77226;SDS011;66234;47.642;19.144;2023-03-23T02:51:52;22.25;;;11.70;;
77226;SDS011;66234;47.642;19.144;2023-03-23T02:54:55;22.73;;;11.50;;
77226;SDS011;66234;47.642;19.144;2023-03-23T02:58:01;23.07;;;11.83;;
77226;SDS011;66234;47.642;19.144;2023-03-23T03:01:13;24.13;;;11.20;;
77226;SDS011;66234;47.642;19.144;2023-03-23T03:04:38;22.98;;;11.05;;
77226;SDS011;66234;47.642;19.144;2023-03-23T03:11:00;22.08;;;11.48;;
77226;SDS011;66234;47.642;19.144;2023-03-23T03:14:08;21.40;;;10.53;;
77226;SDS011;66234;47.642;19.144;2023-03-23T03:20:24;26.10;;;11.55;;
77226;SDS011;66234;47.642;19.144;2023-03-23T03:23:27;26.23;;;12.20;;
77226;SDS011;66234;47.642;19.144;2023-03-23T03:26:33;25.25;;;11.40;;
77226;SDS011;66234;47.642;19.144;2023-03-23T03:29:59;25.37;;;11.47;;
77226;SDS011;66234;47.642;19.144;2023-03-23T03:33:04;21.63;;;11.50;;
77226;SDS011;66234;47.642;19.144;2023-03-23T03:36:06;24.75;;;12.05;;
77226;SDS011;66234;47.642;19.144;2023-03-23T03:39:15;22.85;;;11.32;;
77226;SDS011;66234;47.642;19.144;2023-03-23T03:42:18;25.67;;;12.52;;
77226;SDS011;66234;47.642;19.144;2023-03-23T03:45:19;20.50;;;12.00;;
77226;SDS011;66234;47.642;19.144;2023-03-23T03:48:21;28.23;;;11.32;;
77226;SDS011;66234;47.642;19.144;2023-03-23T03:51:23;24.75;;;11.82;;
77226;SDS011;66234;47.642;19.144;2023-03-23T03:54:27;23.67;;;11.68;;
77226;SDS011;66234;47.642;19.144;2023-03-23T03:57:28;21.20;;;11.47;;
77226;SDS011;66234;47.642;19.144;2023-03-23T04:00:33;24.58;;;11.15;;
77226;SDS011;66234;47.642;19.144;2023-03-23T04:03:34;24.20;;;11.50;;
77226;SDS011;66234;47.642;19.144;2023-03-23T04:06:44;21.48;;;10.20;;
77226;SDS011;66234;47.642;19.144;2023-03-23T04:09:46;21.70;;;10.98;;
77226;SDS011;66234;47.642;19.144;2023-03-23T04:12:51;27.97;;;10.87;;
77226;SDS011;66234;47.642;19.144;2023-03-23T04:16:15;22.90;;;10.77;;
77226;SDS011;66234;47.642;19.144;2023-03-23T04:19:19;18.88;;;10.35;;
77226;SDS011;66234;47.642;19.144;2023-03-23T04:22:20;20.70;;;10.45;;
77226;SDS011;66234;47.642;19.144;2023-03-23T04:25:33;23.27;;;10.40;;
77226;SDS011;66234;47.642;19.144;2023-03-23T04:28:38;21.73;;;10.23;;
77226;SDS011;66234;47.642;19.144;2023-03-23T04:32:06;16.67;;;9.35;;
77226;SDS011;66234;47.642;19.144;2023-03-23T04:35:13;21.00;;;10.85;;
77226;SDS011;66234;47.642;19.144;2023-03-23T04:38:23;24.13;;;10.85;;
77226;SDS011;66234;47.642;19.144;2023-03-23T04:41:32;22.30;;;10.85;;
77226;SDS011;66234;47.642;19.144;2023-03-23T04:44:47;20.73;;;9.90;;
77226;SDS011;66234;47.642;19.144;2023-03-23T04:48:15;22.13;;;9.98;;
77226;SDS011;66234;47.642;19.144;2023-03-23T04:51:28;18.92;;;9.45;;
77226;SDS011;66234;47.642;19.144;2023-03-23T04:54:37;19.02;;;9.65;;
77226;SDS011;66234;47.642;19.144;2023-03-23T04:57:39;20.90;;;9.47;;
77226;SDS011;66234;47.642;19.144;2023-03-23T05:01:01;20.23;;;9.70;;
77226;SDS011;66234;47.642;19.144;2023-03-23T05:04:03;19.20;;;10.13;;
77226;SDS011;66234;47.642;19.144;2023-03-23T05:07:06;19.08;;;9.85;;
77226;SDS011;66234;47.642;19.144;2023-03-23T05:10:14;18.30;;;9.38;;
77226;SDS011;66234;47.642;19.144;2023-03-23T05:13:17;21.00;;;10.33;;
77226;SDS011;66234;47.642;19.144;2023-03-23T05:16:23;22.55;;;10.02;;
77226;SDS011;66234;47.642;19.144;2023-03-23T05:19:24;22.55;;;10.35;;
77226;SDS011;66234;47.642;19.144;2023-03-23T05:22:28;18.13;;;9.32;;
77226;SDS011;66234;47.642;19.144;2023-03-23T05:25:34;20.40;;;8.97;;
77226;SDS011;66234;47.642;19.144;2023-03-23T05:28:47;20.47;;;9.90;;
77226;SDS011;66234;47.642;19.144;2023-03-23T05:31:54;18.50;;;10.07;;
77226;SDS011;66234;47.642;19.144;2023-03-23T05:34:58;20.95;;;10.52;;
77226;SDS011;66234;47.642;19.144;2023-03-23T05:38:00;19.45;;;9.77;;
77226;SDS011;66234;47.642;19.144;2023-03-23T05:41:04;22.90;;;12.07;;
77226;SDS011;66234;47.642;19.144;2023-03-23T05:44:12;21.90;;;11.67;;
77226;SDS011;66234;47.642;19.144;2023-03-23T05:47:22;25.42;;;11.55;;
77226;SDS011;66234;47.642;19.144;2023-03-23T05:50:30;21.35;;;11.32;;
77226;SDS011;66234;47.642;19.144;2023-03-23T05:53:32;25.58;;;11.75;;
77226;SDS011;66234;47.642;19.144;2023-03-23T05:56:35;24.60;;;13.03;;
77226;SDS011;66234;47.642;19.144;2023-03-23T05:59:53;25.60;;;12.83;;
77226;SDS011;66234;47.642;19.144;2023-03-23T06:02:58;28.60;;;15.02;;
77226;SDS011;66234;47.642;19.144;2023-03-23T06:06:13;26.08;;;14.23;;
77226;SDS011;66234;47.642;19.144;2023-03-23T06:09:24;31.45;;;14.57;;
77226;SDS011;66234;47.642;19.144;2023-03-23T06:12:44;28.60;;;13.50;;
77226;SDS011;66234;47.642;19.144;2023-03-23T06:16:01;28.13;;;13.50;;
77226;SDS011;66234;47.642;19.144;2023-03-23T06:19:20;25.05;;;13.55;;
77226;SDS011;66234;47.642;19.144;2023-03-23T06:22:44;26.65;;;12.05;;
77226;SDS011;66234;47.642;19.144;2023-03-23T06:25:57;26.83;;;12.32;;
77226;SDS011;66234;47.642;19.144;2023-03-23T06:29:00;25.67;;;12.40;;
77226;SDS011;66234;47.642;19.144;2023-03-23T06:32:06;21.30;;;12.43;;
77226;SDS011;66234;47.642;19.144;2023-03-23T06:35:09;27.27;;;12.50;;
77226;SDS011;66234;47.642;19.144;2023-03-23T06:38:32;22.70;;;11.88;;
77226;SDS011;66234;47.642;19.144;2023-03-23T06:41:34;23.70;;;12.15;;
77226;SDS011;66234;47.642;19.144;2023-03-23T06:44:36;23.20;;;11.90;;
77226;SDS011;66234;47.642;19.144;2023-03-23T06:47:38;25.43;;;12.30;;
77226;SDS011;66234;47.642;19.144;2023-03-23T06:50:44;26.17;;;12.45;;
77226;SDS011;66234;47.642;19.144;2023-03-23T06:53:49;22.30;;;11.10;;
77226;SDS011;66234;47.642;19.144;2023-03-23T06:56:51;25.20;;;11.55;;
77226;SDS011;66234;47.642;19.144;2023-03-23T06:59:53;16.60;;;9.53;;
77226;SDS011;66234;47.642;19.144;2023-03-23T07:02:57;13.73;;;6.80;;
77226;SDS011;66234;47.642;19.144;2023-03-23T07:05:59;18.02;;;8.30;;
77226;SDS011;66234;47.642;19.144;2023-03-23T07:09:05;17.55;;;7.60;;
77226;SDS011;66234;47.642;19.144;2023-03-23T07:12:07;14.07;;;7.00;;
77226;SDS011;66234;47.642;19.144;2023-03-23T07:15:16;13.10;;;7.03;;
77226;SDS011;66234;47.642;19.144;2023-03-23T07:18:21;17.30;;;8.33;;
77226;SDS011;66234;47.642;19.144;2023-03-23T07:21:24;16.17;;;8.98;;
77226;SDS011;66234;47.642;19.144;2023-03-23T07:24:26;14.88;;;8.48;;
77226;SDS011;66234;47.642;19.144;2023-03-23T07:27:50;16.88;;;8.55;;
77226;SDS011;66234;47.642;19.144;2023-03-23T07:30:52;20.03;;;9.50;;
77226;SDS011;66234;47.642;19.144;2023-03-23T07:33:55;18.00;;;9.00;;
77226;SDS011;66234;47.642;19.144;2023-03-23T07:37:04;16.38;;;9.50;;
77226;SDS011;66234;47.642;19.144;2023-03-23T07:40:10;17.98;;;9.35;;
77226;SDS011;66234;47.642;19.144;2023-03-23T07:43:22;18.35;;;9.88;;
77226;SDS011;66234;47.642;19.144;2023-03-23T07:46:43;17.87;;;10.13;;
77226;SDS011;66234;47.642;19.144;2023-03-23T07:49:48;19.67;;;10.70;;
77226;SDS011;66234;47.642;19.144;2023-03-23T07:52:58;19.60;;;10.18;;
77226;SDS011;66234;47.642;19.144;2023-03-23T07:56:02;21.27;;;10.77;;
77226;SDS011;66234;47.642;19.144;2023-03-23T07:59:43;18.52;;;10.82;;
77226;SDS011;66234;47.642;19.144;2023-03-23T08:02:45;17.07;;;10.20;;
77226;SDS011;66234;47.642;19.144;2023-03-23T08:06:14;26.10;;;11.87;;
77226;SDS011;66234;47.642;19.144;2023-03-23T08:09:26;20.27;;;9.93;;
77226;SDS011;66234;47.642;19.144;2023-03-23T08:12:54;24.85;;;10.40;;
77226;SDS011;66234;47.642;19.144;2023-03-23T08:16:03;22.55;;;11.00;;
77226;SDS011;66234;47.642;19.144;2023-03-23T08:19:23;23.13;;;11.00;;
77226;SDS011;66234;47.642;19.144;2023-03-23T08:22:37;22.73;;;10.60;;
77226;SDS011;66234;47.642;19.144;2023-03-23T08:26:06;19.58;;;10.25;;
77226;SDS011;66234;47.642;19.144;2023-03-23T08:29:21;18.02;;;9.45;;
77226;SDS011;66234;47.642;19.144;2023-03-23T08:32:40;14.88;;;9.02;;
77226;SDS011;66234;47.642;19.144;2023-03-23T08:36:04;14.77;;;8.20;;
77226;SDS011;66234;47.642;19.144;2023-03-23T08:39:22;19.07;;;7.90;;
77226;SDS011;66234;47.642;19.144;2023-03-23T08:42:42;18.15;;;8.82;;
77226;SDS011;66234;47.642;19.144;2023-03-23T08:46:07;13.93;;;8.32;;
77226;SDS011;66234;47.642;19.144;2023-03-23T08:49:34;33.97;;;9.00;;
77226;SDS011;66234;47.642;19.144;2023-03-23T08:53:09;19.00;;;7.80;;
77226;SDS011;66234;47.642;19.144;2023-03-23T08:56:38;15.43;;;8.20;;
77226;SDS011;66234;47.642;19.144;2023-03-23T08:59:57;15.27;;;7.43;;
77226;SDS011;66234;47.642;19.144;2023-03-23T09:03:19;15.95;;;7.75;;
77226;SDS011;66234;47.642;19.144;2023-03-23T09:06:34;10.63;;;6.57;;
77226;SDS011;66234;47.642;19.144;2023-03-23T09:09:37;13.57;;;7.33;;
77226;SDS011;66234;47.642;19.144;2023-03-23T09:12:43;13.83;;;6.73;;
77226;SDS011;66234;47.642;19.144;2023-03-23T09:15:46;14.57;;;7.00;;
77226;SDS011;66234;47.642;19.144;2023-03-23T09:18:49;12.63;;;6.75;;
77226;SDS011;66234;47.642;19.144;2023-03-23T09:21:51;13.10;;;7.15;;
77226;SDS011;66234;47.642;19.144;2023-03-23T09:24:54;12.97;;;6.60;;
77226;SDS011;66234;47.642;19.144;2023-03-23T09:27:56;9.43;;;6.63;;
77226;SDS011;66234;47.642;19.144;2023-03-23T09:31:00;12.98;;;7.30;;
77226;SDS011;66234;47.642;19.144;2023-03-23T09:34:01;11.80;;;6.88;;
77226;SDS011;66234;47.642;19.144;2023-03-23T09:37:05;12.25;;;7.03;;
77226;SDS011;66234;47.642;19.144;2023-03-23T09:40:11;12.03;;;7.13;;
77226;SDS011;66234;47.642;19.144;2023-03-23T09:50:00;11.48;;;6.40;;
77226;SDS011;66234;47.642;19.144;2023-03-23T09:53:22;15.63;;;6.68;;
77226;SDS011;66234;47.642;19.144;2023-03-23T09:56:30;8.77;;;6.10;;
77226;SDS011;66234;47.642;19.144;2023-03-23T09:59:55;10.80;;;5.80;;
77226;SDS011;66234;47.642;19.144;2023-03-23T10:06:17;15.20;;;6.80;;
77226;SDS011;66234;47.642;19.144;2023-03-23T10:09:19;11.18;;;6.40;;
77226;SDS011;66234;47.642;19.144;2023-03-23T10:12:35;11.53;;;5.97;;
77226;SDS011;66234;47.642;19.144;2023-03-23T10:15:44;10.47;;;6.30;;
77226;SDS011;66234;47.642;19.144;2023-03-23T10:18:53;10.45;;;5.50;;
77226;SDS011;66234;47.642;19.144;2023-03-23T10:22:22;13.02;;;5.10;;
77226;SDS011;66234;47.642;19.144;2023-03-23T10:25:37;11.68;;;5.88;;
77226;SDS011;66234;47.642;19.144;2023-03-23T10:28:44;10.07;;;5.73;;
77226;SDS011;66234;47.642;19.144;2023-03-23T10:31:58;13.00;;;5.53;;
77226;SDS011;66234;47.642;19.144;2023-03-23T10:35:05;9.27;;;4.90;;
77226;SDS011;66234;47.642;19.144;2023-03-23T10:38:13;11.60;;;5.38;;
77226;SDS011;66234;47.642;19.144;2023-03-23T10:41:19;7.68;;;5.40;;
77226;SDS011;66234;47.642;19.144;2023-03-23T10:44:23;9.43;;;6.67;;
77226;SDS011;66234;47.642;19.144;2023-03-23T10:47:26;11.17;;;5.47;;
77226;SDS011;66234;47.642;19.144;2023-03-23T10:50:31;7.45;;;5.10;;
77226;SDS011;66234;47.642;19.144;2023-03-23T10:53:36;7.47;;;4.97;;
77226;SDS011;66234;47.642;19.144;2023-03-23T10:56:52;11.93;;;5.65;;
77226;SDS011;66234;47.642;19.144;2023-03-23T11:00:00;10.07;;;4.63;;
77226;SDS011;66234;47.642;19.144;2023-03-23T11:06:24;8.98;;;4.82;;
77226;SDS011;66234;47.642;19.144;2023-03-23T11:09:35;11.65;;;5.95;;
77226;SDS011;66234;47.642;19.144;2023-03-23T11:12:38;11.07;;;5.78;;
77226;SDS011;66234;47.642;19.144;2023-03-23T11:15:40;10.80;;;6.20;;
77226;SDS011;66234;47.642;19.144;2023-03-23T11:18:43;11.03;;;6.50;;
77226;SDS011;66234;47.642;19.144;2023-03-23T11:21:49;10.52;;;5.72;;
77226;SDS011;66234;47.642;19.144;2023-03-23T11:24:54;9.20;;;5.72;;
77226;SDS011;66234;47.642;19.144;2023-03-23T11:28:00;12.68;;;6.28;;
77226;SDS011;66234;47.642;19.144;2023-03-23T11:31:03;10.67;;;6.03;;
77226;SDS011;66234;47.642;19.144;2023-03-23T11:34:13;9.40;;;6.63;;
77226;SDS011;66234;47.642;19.144;2023-03-23T11:37:40;10.20;;;6.00;;
77226;SDS011;66234;47.642;19.144;2023-03-23T11:40:46;10.05;;;6.18;;
77226;SDS011;66234;47.642;19.144;2023-03-23T11:43:51;9.32;;;5.53;;
77226;SDS011;66234;47.642;19.144;2023-03-23T11:46:58;7.80;;;5.47;;
77226;SDS011;66234;47.642;19.144;2023-03-23T11:50:09;12.30;;;5.83;;
77226;SDS011;66234;47.642;19.144;2023-03-23T11:56:36;9.23;;;5.13;;
77226;SDS011;66234;47.642;19.144;2023-03-23T11:59:39;10.38;;;5.22;;
77226;SDS011;66234;47.642;19.144;2023-03-23T12:06:26;7.13;;;4.47;;
77226;SDS011;66234;47.642;19.144;2023-03-23T12:23:21;15.23;;;4.20;;
77226;SDS011;66234;47.642;19.144;2023-03-23T12:33:54;7.25;;;3.25;;
77226;SDS011;66234;47.642;19.144;2023-03-23T12:37:12;5.13;;;3.70;;
77226;SDS011;66234;47.642;19.144;2023-03-23T12:44:04;8.07;;;4.45;;
77226;SDS011;66234;47.642;19.144;2023-03-23T12:47:17;5.50;;;3.60;;
77226;SDS011;66234;47.642;19.144;2023-03-23T12:51:00;6.00;;;3.33;;
77226;SDS011;66234;47.642;19.144;2023-03-23T13:04:29;5.82;;;4.28;;
77226;SDS011;66234;47.642;19.144;2023-03-23T13:07:49;5.30;;;3.88;;
77226;SDS011;66234;47.642;19.144;2023-03-23T13:11:10;7.80;;;3.47;;
77226;SDS011;66234;47.642;19.144;2023-03-23T13:21:27;6.40;;;3.50;;
77226;SDS011;66234;47.642;19.144;2023-03-23T13:24:34;5.20;;;3.60;;
77226;SDS011;66234;47.642;19.144;2023-03-23T13:27:38;5.75;;;3.00;;
77226;SDS011;66234;47.642;19.144;2023-03-23T13:30:40;6.27;;;3.20;;
77226;SDS011;66234;47.642;19.144;2023-03-23T13:33:53;5.35;;;3.38;;
77226;SDS011;66234;47.642;19.144;2023-03-23T13:36:59;7.75;;;3.70;;
77226;SDS011;66234;47.642;19.144;2023-03-23T13:43:12;5.63;;;3.42;;
77226;SDS011;66234;47.642;19.144;2023-03-23T13:49:20;12.75;;;3.33;;
77226;SDS011;66234;47.642;19.144;2023-03-23T13:56:06;5.97;;;3.33;;
77226;SDS011;66234;47.642;19.144;2023-03-23T14:05:41;4.68;;;3.28;;
77226;SDS011;66234;47.642;19.144;2023-03-23T14:08:45;4.47;;;3.00;;
77226;SDS011;66234;47.642;19.144;2023-03-23T14:11:55;5.68;;;3.60;;
77226;SDS011;66234;47.642;19.144;2023-03-23T14:15:00;4.20;;;3.30;;
77226;SDS011;66234;47.642;19.144;2023-03-23T14:18:05;4.20;;;3.27;;
77226;SDS011;66234;47.642;19.144;2023-03-23T14:21:13;5.00;;;3.20;;
77226;SDS011;66234;47.642;19.144;2023-03-23T14:24:19;5.70;;;3.22;;
77226;SDS011;66234;47.642;19.144;2023-03-23T14:27:22;4.57;;;3.10;;
77226;SDS011;66234;47.642;19.144;2023-03-23T14:30:25;8.45;;;3.10;;
77226;SDS011;66234;47.642;19.144;2023-03-23T14:33:28;3.93;;;3.30;;
77226;SDS011;66234;47.642;19.144;2023-03-23T14:36:30;3.30;;;2.90;;
77226;SDS011;66234;47.642;19.144;2023-03-23T14:39:32;4.22;;;3.40;;
77226;SDS011;66234;47.642;19.144;2023-03-23T14:42:36;5.57;;;3.38;;
77226;SDS011;66234;47.642;19.144;2023-03-23T14:45:38;5.72;;;3.30;;
77226;SDS011;66234;47.642;19.144;2023-03-23T14:48:40;4.93;;;3.20;;
77226;SDS011;66234;47.642;19.144;2023-03-23T14:51:49;6.35;;;3.28;;
77226;SDS011;66234;47.642;19.144;2023-03-23T14:54:52;5.55;;;3.70;;
77226;SDS011;66234;47.642;19.144;2023-03-23T14:57:54;7.05;;;3.45;;
77226;SDS011;66234;47.642;19.144;2023-03-23T15:01:06;5.70;;;3.30;;
77226;SDS011;66234;47.642;19.144;2023-03-23T15:04:12;4.93;;;3.37;;
77226;SDS011;66234;47.642;19.144;2023-03-23T15:07:14;6.97;;;3.67;;
77226;SDS011;66234;47.642;19.144;2023-03-23T15:10:18;8.82;;;3.58;;
77226;SDS011;66234;47.642;19.144;2023-03-23T15:13:22;6.70;;;3.30;;
77226;SDS011;66234;47.642;19.144;2023-03-23T15:16:27;6.67;;;2.63;;
77226;SDS011;66234;47.642;19.144;2023-03-23T15:19:34;8.70;;;3.77;;
77226;SDS011;66234;47.642;19.144;2023-03-23T15:22:45;7.65;;;3.42;;
77226;SDS011;66234;47.642;19.144;2023-03-23T15:25:48;5.65;;;3.58;;
77226;SDS011;66234;47.642;19.144;2023-03-23T15:29:26;6.25;;;3.78;;
77226;SDS011;66234;47.642;19.144;2023-03-23T15:32:37;7.77;;;3.80;;
77226;SDS011;66234;47.642;19.144;2023-03-23T15:35:44;4.90;;;3.40;;
77226;SDS011;66234;47.642;19.144;2023-03-23T15:38:47;6.15;;;3.45;;
77226;SDS011;66234;47.642;19.144;2023-03-23T15:41:50;6.35;;;3.40;;
77226;SDS011;66234;47.642;19.144;2023-03-23T15:48:08;4.00;;;2.83;;
77226;SDS011;66234;47.642;19.144;2023-03-23T15:51:12;6.23;;;2.73;;
77226;SDS011;66234;47.642;19.144;2023-03-23T15:54:15;5.28;;;3.17;;
77226;SDS011;66234;47.642;19.144;2023-03-23T15:57:17;5.65;;;3.58;;
77226;SDS011;66234;47.642;19.144;2023-03-23T16:00:19;6.28;;;2.72;;
77226;SDS011;66234;47.642;19.144;2023-03-23T16:03:24;6.57;;;2.50;;
77226;SDS011;66234;47.642;19.144;2023-03-23T16:06:30;5.93;;;2.80;;
77226;SDS011;66234;47.642;19.144;2023-03-23T16:09:34;5.43;;;3.05;;
77226;SDS011;66234;47.642;19.144;2023-03-23T16:12:37;5.55;;;2.85;;
77226;SDS011;66234;47.642;19.144;2023-03-23T16:15:40;6.82;;;2.58;;
77226;SDS011;66234;47.642;19.144;2023-03-23T16:18:43;7.67;;;2.40;;
77226;SDS011;66234;47.642;19.144;2023-03-23T16:21:46;4.43;;;2.30;;
77226;SDS011;66234;47.642;19.144;2023-03-23T16:24:49;6.65;;;2.55;;
77226;SDS011;66234;47.642;19.144;2023-03-23T16:27:51;4.90;;;2.60;;
77226;SDS011;66234;47.642;19.144;2023-03-23T16:30:55;7.80;;;3.20;;
77226;SDS011;66234;47.642;19.144;2023-03-23T16:33:58;5.27;;;3.37;;
77226;SDS011;66234;47.642;19.144;2023-03-23T16:37:01;12.13;;;3.17;;
77226;SDS011;66234;47.642;19.144;2023-03-23T16:40:04;7.97;;;2.75;;
77226;SDS011;66234;47.642;19.144;2023-03-23T16:43:08;5.47;;;2.95;;
77226;SDS011;66234;47.642;19.144;2023-03-23T16:46:12;7.57;;;3.70;;
77226;SDS011;66234;47.642;19.144;2023-03-23T16:49:15;7.23;;;3.67;;
77226;SDS011;66234;47.642;19.144;2023-03-23T16:52:18;7.33;;;3.97;;
77226;SDS011;66234;47.642;19.144;2023-03-23T16:55:21;8.32;;;4.32;;
77226;SDS011;66234;47.642;19.144;2023-03-23T16:58:23;5.60;;;3.35;;
77226;SDS011;66234;47.642;19.144;2023-03-23T17:01:26;6.85;;;3.22;;
77226;SDS011;66234;47.642;19.144;2023-03-23T17:04:29;5.93;;;3.10;;
77226;SDS011;66234;47.642;19.144;2023-03-23T17:07:32;9.03;;;2.97;;
77226;SDS011;66234;47.642;19.144;2023-03-23T17:10:36;5.50;;;3.15;;
77226;SDS011;66234;47.642;19.144;2023-03-23T17:13:41;6.47;;;3.40;;
77226;SDS011;66234;47.642;19.144;2023-03-23T17:16:43;10.32;;;5.57;;
77226;SDS011;66234;47.642;19.144;2023-03-23T17:19:46;12.83;;;6.27;;
77226;SDS011;66234;47.642;19.144;2023-03-23T17:22:49;13.87;;;6.30;;
77226;SDS011;66234;47.642;19.144;2023-03-23T17:25:51;6.57;;;3.80;;
77226;SDS011;66234;47.642;19.144;2023-03-23T17:28:55;6.70;;;3.50;;
77226;SDS011;66234;47.642;19.144;2023-03-23T17:31:58;8.25;;;4.93;;
77226;SDS011;66234;47.642;19.144;2023-03-23T17:35:01;12.53;;;6.60;;
77226;SDS011;66234;47.642;19.144;2023-03-23T17:38:06;13.13;;;8.30;;
77226;SDS011;66234;47.642;19.144;2023-03-23T17:41:09;16.17;;;10.07;;
77226;SDS011;66234;47.642;19.144;2023-03-23T17:44:13;39.22;;;17.05;;
77226;SDS011;66234;47.642;19.144;2023-03-23T17:47:16;28.75;;;13.23;;
77226;SDS011;66234;47.642;19.144;2023-03-23T17:50:18;29.03;;;13.10;;
77226;SDS011;66234;47.642;19.144;2023-03-23T17:53:22;23.37;;;12.27;;
77226;SDS011;66234;47.642;19.144;2023-03-23T17:56:26;15.25;;;9.40;;
77226;SDS011;66234;47.642;19.144;2023-03-23T17:59:29;16.08;;;8.68;;
77226;SDS011;66234;47.642;19.144;2023-03-23T18:02:33;12.95;;;7.65;;
77226;SDS011;66234;47.642;19.144;2023-03-23T18:05:39;11.03;;;6.30;;
77226;SDS011;66234;47.642;19.144;2023-03-23T18:08:43;17.23;;;7.33;;
77226;SDS011;66234;47.642;19.144;2023-03-23T18:11:45;12.80;;;7.45;;
77226;SDS011;66234;47.642;19.144;2023-03-23T18:14:49;21.15;;;10.05;;
77226;SDS011;66234;47.642;19.144;2023-03-23T18:17:52;20.77;;;11.57;;
77226;SDS011;66234;47.642;19.144;2023-03-23T18:20:56;31.27;;;15.77;;
77226;SDS011;66234;47.642;19.144;2023-03-23T18:24:03;41.30;;;20.80;;
77226;SDS011;66234;47.642;19.144;2023-03-23T18:27:06;39.53;;;18.38;;
77226;SDS011;66234;47.642;19.144;2023-03-23T18:30:09;31.10;;;15.93;;
77226;SDS011;66234;47.642;19.144;2023-03-23T18:33:13;31.70;;;16.25;;
77226;SDS011;66234;47.642;19.144;2023-03-23T18:36:17;34.13;;;17.37;;
77226;SDS011;66234;47.642;19.144;2023-03-23T18:39:22;31.47;;;16.67;;
77226;SDS011;66234;47.642;19.144;2023-03-23T18:42:24;27.92;;;14.00;;
77226;SDS011;66234;47.642;19.144;2023-03-23T18:45:28;26.40;;;13.43;;
77226;SDS011;66234;47.642;19.144;2023-03-23T18:48:31;20.75;;;10.95;;
77226;SDS011;66234;47.642;19.144;2023-03-23T18:51:34;18.03;;;8.67;;
77226;SDS011;66234;47.642;19.144;2023-03-23T18:54:39;17.50;;;9.73;;
77226;SDS011;66234;47.642;19.144;2023-03-23T18:57:43;26.50;;;12.73;;
77226;SDS011;66234;47.642;19.144;2023-03-23T19:00:46;29.88;;;13.95;;
77226;SDS011;66234;47.642;19.144;2023-03-23T19:03:49;25.98;;;13.13;;
77226;SDS011;66234;47.642;19.144;2023-03-23T19:06:52;26.23;;;13.30;;
77226;SDS011;66234;47.642;19.144;2023-03-23T19:09:55;15.90;;;9.37;;
77226;SDS011;66234;47.642;19.144;2023-03-23T19:12:58;19.48;;;9.35;;
77226;SDS011;66234;47.642;19.144;2023-03-23T19:16:01;12.80;;;6.95;;
77226;SDS011;66234;47.642;19.144;2023-03-23T19:19:05;11.82;;;7.63;;
77226;SDS011;66234;47.642;19.144;2023-03-23T19:22:10;11.60;;;6.27;;
77226;SDS011;66234;47.642;19.144;2023-03-23T19:25:16;10.03;;;6.30;;
77226;SDS011;66234;47.642;19.144;2023-03-23T19:28:19;11.10;;;5.82;;
77226;SDS011;66234;47.642;19.144;2023-03-23T19:31:43;10.05;;;6.45;;
77226;SDS011;66234;47.642;19.144;2023-03-23T19:34:47;13.55;;;6.85;;
77226;SDS011;66234;47.642;19.144;2023-03-23T19:37:52;11.93;;;6.63;;
77226;SDS011;66234;47.642;19.144;2023-03-23T19:40:55;11.63;;;6.67;;
77226;SDS011;66234;47.642;19.144;2023-03-23T19:44:07;13.95;;;6.65;;
77226;SDS011;66234;47.642;19.144;2023-03-23T19:47:10;14.85;;;6.38;;
77226;SDS011;66234;47.642;19.144;2023-03-23T19:50:15;12.45;;;6.20;;
77226;SDS011;66234;47.642;19.144;2023-03-23T19:53:18;14.00;;;6.73;;